createdAt,value
2023-04-18T00:00:59.088Z,10.26
2023-04-18T00:06:00.980Z,10.32
2023-04-18T00:11:02.708Z,10.33
2023-04-18T00:16:04.541Z,10.34
2023-04-18T00:21:07.107Z,10.25
2023-04-18T00:26:09.005Z,10.27
2023-04-18T00:31:10.772Z,10.17
2023-04-18T00:36:12.579Z,10.21
2023-04-18T00:41:14.257Z,10.24
2023-04-18T00:46:16.044Z,10.12
2023-04-18T00:51:17.893Z,10.21
2023-04-18T00:56:19.801Z,10.10
2023-04-18T01:01:21.452Z,10.15
2023-04-18T01:06:23.707Z,10.04
2023-04-18T01:11:25.290Z,10.15
2023-04-18T01:16:27.870Z,10.11
2023-04-18T01:21:37.430Z,10.13
2023-04-18T01:26:39.733Z,10.17
2023-04-18T01:31:41.662Z,10.12
2023-04-18T01:36:43.457Z,10.09
2023-04-18T01:41:45.079Z,10.03
2023-04-18T01:46:46.685Z,10.07
2023-04-18T01:51:48.275Z,10.04
2023-04-18T01:56:49.848Z,10.05
2023-04-18T02:01:51.434Z,10.04
2023-04-18T02:06:53.303Z,10.03
2023-04-18T02:11:59.443Z,9.95
2023-04-18T02:17:01.180Z,9.80
2023-04-18T02:22:02.751Z,9.97
2023-04-18T02:27:04.365Z,9.91
2023-04-18T02:32:06.440Z,9.95
2023-04-18T02:37:08.103Z,9.89
2023-04-18T02:42:09.686Z,9.86
2023-04-18T02:47:11.324Z,9.92
2023-04-18T02:52:12.927Z,9.80
2023-04-18T02:57:14.713Z,9.91
2023-04-18T03:02:16.410Z,9.94
2023-04-18T03:07:18.076Z,9.85
2023-04-18T03:12:19.671Z,9.91
2023-04-18T03:17:21.312Z,9.91
2023-04-18T03:22:23.024Z,9.93
2023-04-18T03:27:24.625Z,9.91
2023-04-18T03:32:26.312Z,9.86
2023-04-18T03:37:27.948Z,9.87
2023-04-18T03:42:30.011Z,9.83
2023-04-18T03:47:32.377Z,9.80
2023-04-18T03:52:34.032Z,9.73
2023-04-18T03:57:35.769Z,9.80
2023-04-18T04:02:37.540Z,9.86
2023-04-18T04:07:39.289Z,9.84
2023-04-18T04:12:41.074Z,9.88
2023-04-18T04:17:42.704Z,9.88
2023-04-18T04:22:44.326Z,9.90
2023-04-18T04:27:46.058Z,9.82
2023-04-18T04:32:47.945Z,9.91
2023-04-18T04:37:50.755Z,9.72
2023-04-18T04:42:54.195Z,9.85
2023-04-18T04:47:55.833Z,9.67
2023-04-18T04:52:57.435Z,9.76
2023-04-18T04:57:59.129Z,9.83
2023-04-18T05:03:00.945Z,9.84
2023-04-18T05:08:03.296Z,9.77
2023-04-18T05:13:05.204Z,9.89
2023-04-18T05:18:07.167Z,9.86
2023-04-18T05:23:08.812Z,9.76
2023-04-18T05:28:10.539Z,9.74
2023-04-18T05:33:12.172Z,9.80
2023-04-18T05:38:13.791Z,9.70
2023-04-18T05:43:15.454Z,9.86
2023-04-18T05:48:17.053Z,9.83
2023-04-18T05:53:18.623Z,9.87
2023-04-18T05:58:20.304Z,9.90
2023-04-18T06:03:22.148Z,9.92
2023-04-18T06:08:24.124Z,10.04
2023-04-18T06:13:25.679Z,10.02
2023-04-18T06:18:27.318Z,10.18
2023-04-18T06:23:28.953Z,10.21
2023-04-18T06:28:30.702Z,9.99
2023-04-18T06:33:33.477Z,10.19
2023-04-18T06:38:35.110Z,10.26
2023-04-18T06:43:37.174Z,10.25
2023-04-18T06:48:38.786Z,10.34
2023-04-18T06:53:40.634Z,10.37
2023-04-18T06:58:42.214Z,10.30
2023-04-18T07:03:43.961Z,10.34
2023-04-18T07:08:45.767Z,10.38
2023-04-18T07:13:48.807Z,10.48
2023-04-18T07:18:51.780Z,10.59
2023-04-18T07:23:53.407Z,10.66
2023-04-18T07:28:55.014Z,10.75
2023-04-18T07:33:57.062Z,10.86
2023-04-18T07:38:58.666Z,11.14
2023-04-18T07:44:03.155Z,11.03
2023-04-18T07:49:04.847Z,10.95
2023-04-18T07:54:06.481Z,10.97
2023-04-18T07:59:08.085Z,11.79
2023-04-18T08:04:09.971Z,11.80
2023-04-18T08:09:12.626Z,12.15
2023-04-18T08:14:14.509Z,12.42
2023-04-18T08:19:16.231Z,12.65
2023-04-18T08:24:18.088Z,12.87
2023-04-18T08:29:19.696Z,12.77
2023-04-18T08:34:21.491Z,11.77
2023-04-18T08:39:25.247Z,11.21
2023-04-18T08:44:30.754Z,11.27
2023-04-18T08:49:32.451Z,11.17
2023-04-18T08:54:34.382Z,11.10
2023-04-18T08:59:36.408Z,11.14
2023-04-18T09:04:39.308Z,11.05
2023-04-18T09:09:41.864Z,11.14
2023-04-18T09:14:46.718Z,11.12
2023-04-18T09:19:50.382Z,12.21
2023-04-18T09:24:57.537Z,12.45
2023-04-18T09:30:00.872Z,12.28
2023-04-18T09:35:05.505Z,11.63
2023-04-18T09:40:25.588Z,12.65
2023-04-18T09:45:27.487Z,12.14
2023-04-18T09:50:29.442Z,11.48
2023-04-18T09:55:32.065Z,11.72
2023-04-18T10:00:34.590Z,12.27
2023-04-18T10:05:38.821Z,11.85
2023-04-18T10:10:40.868Z,12.24
2023-04-18T10:15:44.300Z,11.85
2023-04-18T10:20:47.218Z,11.59
2023-04-18T10:25:50.090Z,11.66
2023-04-18T10:30:54.037Z,11.62
2023-04-18T10:36:14.446Z,11.60
2023-04-18T10:41:18.728Z,11.77
2023-04-18T10:46:31.003Z,11.89
2023-04-18T10:51:36.052Z,12.04
2023-04-18T10:56:37.888Z,11.89
2023-04-18T11:01:55.134Z,12.21
2023-04-18T11:06:58.501Z,12.20
2023-04-18T11:12:10.732Z,12.35
2023-04-18T11:17:23.837Z,12.06
2023-04-18T11:22:25.986Z,12.78
2023-04-18T11:27:29.604Z,12.99
2023-04-18T11:32:31.471Z,13.03
2023-04-18T11:37:33.231Z,12.70
2023-04-18T11:42:37.321Z,13.02
2023-04-18T11:47:39.496Z,13.20
2023-04-18T11:52:42.677Z,13.47
2023-04-18T11:57:58.918Z,12.64
2023-04-18T12:03:02.933Z,13.10
2023-04-18T12:08:20.031Z,13.83
2023-04-18T12:13:32.690Z,13.31
2023-04-18T12:18:34.343Z,13.09
2023-04-18T12:23:37.249Z,13.16
2023-04-18T12:28:39.000Z,13.13
2023-04-18T12:33:40.731Z,12.83
2023-04-18T12:38:42.287Z,12.99
2023-04-18T12:43:43.890Z,12.95
2023-04-18T12:48:45.815Z,12.74
2023-04-18T12:53:47.461Z,13.02
2023-04-18T12:58:49.477Z,12.99
2023-04-18T13:04:03.846Z,12.81
2023-04-18T13:09:12.728Z,13.08
2023-04-18T13:14:14.647Z,12.89
2023-04-18T13:19:16.519Z,12.92
2023-04-18T13:24:18.182Z,13.21
2023-04-18T13:29:19.772Z,12.72
2023-04-18T13:34:21.349Z,12.84
2023-04-18T13:39:24.850Z,12.60
2023-04-18T13:44:26.828Z,12.85
2023-04-18T13:49:28.612Z,12.70
2023-04-18T13:54:31.817Z,12.58
2023-04-18T13:59:33.523Z,12.78
2023-04-18T14:04:35.381Z,12.87
2023-04-18T14:09:37.051Z,12.83
2023-04-18T14:14:38.701Z,12.82
2023-04-18T14:19:40.289Z,12.59
2023-04-18T14:24:41.952Z,12.70
2023-04-18T14:29:43.568Z,12.49
2023-04-18T14:34:45.249Z,12.57
2023-04-18T14:39:46.958Z,12.44
2023-04-18T14:44:48.551Z,12.56
2023-04-18T14:49:50.138Z,12.34
2023-04-18T14:54:52.146Z,12.53
2023-04-18T14:59:54.905Z,12.43
2023-04-18T15:04:56.711Z,12.39
2023-04-18T15:09:58.511Z,12.38
2023-04-18T15:15:00.608Z,12.45
2023-04-18T15:20:05.584Z,12.26
2023-04-18T15:25:07.773Z,12.43
2023-04-18T15:30:12.127Z,12.30
2023-04-18T15:35:14.210Z,12.40
2023-04-18T15:40:19.126Z,12.43
2023-04-18T15:45:21.898Z,12.23
2023-04-18T15:50:24.280Z,12.27
2023-04-18T15:55:25.926Z,12.20
2023-04-18T16:00:27.647Z,12.15
2023-04-18T16:05:29.371Z,12.07
2023-04-18T16:10:31.140Z,12.18
2023-04-18T16:15:35.831Z,12.10
2023-04-18T16:20:37.498Z,12.19
2023-04-18T16:25:39.079Z,12.13
2023-04-18T16:30:43.796Z,12.10
2023-04-18T16:35:45.553Z,12.07
2023-04-18T16:40:47.185Z,11.94
2023-04-18T16:45:49.041Z,11.84
2023-04-18T16:50:50.874Z,11.82
2023-04-18T16:55:53.500Z,11.88
2023-04-18T17:00:55.709Z,11.80
2023-04-18T17:05:57.671Z,11.74
2023-04-18T17:10:59.856Z,11.69
2023-04-18T17:16:01.983Z,11.65
2023-04-18T17:21:04.223Z,11.62
2023-04-18T17:26:06.688Z,11.57
2023-04-18T17:31:10.897Z,11.59
2023-04-18T17:36:13.134Z,11.57
2023-04-18T17:41:19.961Z,11.53
2023-04-18T17:46:22.233Z,11.50
2023-04-18T17:51:29.841Z,11.49
2023-04-18T17:56:33.136Z,11.50
2023-04-18T18:01:35.454Z,11.41
2023-04-18T18:06:37.702Z,11.43
2023-04-18T18:11:40.667Z,11.45
2023-04-18T18:16:44.105Z,11.41
2023-04-18T18:21:47.699Z,11.38
2023-04-18T18:26:52.039Z,11.46
2023-04-18T18:31:54.367Z,11.46
2023-04-18T18:36:57.758Z,11.33
2023-04-18T18:42:00.957Z,11.45
2023-04-18T18:47:03.593Z,11.25
2023-04-18T18:52:05.562Z,11.33
2023-04-18T18:57:09.607Z,11.23
2023-04-18T19:02:12.329Z,11.16
2023-04-18T19:07:14.960Z,11.22
2023-04-18T19:12:17.542Z,11.20
2023-04-18T19:17:22.498Z,11.15
2023-04-18T19:22:26.176Z,11.07
2023-04-18T19:27:28.427Z,10.94
2023-04-18T19:32:31.896Z,10.87
2023-04-18T19:37:34.190Z,10.89
2023-04-18T19:42:36.461Z,11.01
2023-04-18T19:47:38.984Z,10.95
2023-04-18T19:52:44.348Z,10.85
2023-04-18T19:57:48.090Z,10.89
2023-04-18T20:02:50.032Z,11.00
2023-04-18T20:07:53.917Z,10.91
2023-04-18T20:12:55.834Z,10.96
2023-04-18T20:17:57.867Z,10.85
2023-04-18T20:23:00.031Z,10.78
2023-04-18T20:28:03.445Z,10.89
2023-04-18T20:33:05.548Z,10.74
2023-04-18T20:38:11.622Z,10.79
2023-04-18T20:43:17.504Z,10.61
2023-04-18T20:48:19.692Z,10.55
2023-04-18T20:53:22.813Z,10.52
2023-04-18T20:58:24.925Z,10.29
2023-04-18T21:03:27.105Z,10.38
2023-04-18T21:08:28.792Z,10.37
2023-04-18T21:13:31.784Z,10.51
2023-04-18T21:18:33.929Z,10.47
2023-04-18T21:23:41.960Z,10.51
2023-04-18T21:28:56.538Z,10.29
2023-04-18T21:34:00.345Z,10.45
2023-04-18T21:39:02.011Z,10.51
2023-04-18T21:44:03.809Z,10.60
2023-04-18T21:49:05.450Z,10.74
2023-04-18T21:54:10.165Z,10.63
2023-04-18T21:59:11.744Z,10.70
2023-04-18T22:04:14.830Z,10.56
2023-04-18T22:09:19.330Z,10.44
2023-04-18T22:14:20.916Z,10.52
2023-04-18T22:19:22.825Z,10.68
2023-04-18T22:24:25.989Z,10.66
2023-04-18T22:29:27.602Z,10.58
2023-04-18T22:34:30.520Z,10.67
2023-04-18T22:39:32.192Z,10.57
2023-04-18T22:44:33.772Z,10.61
2023-04-18T22:49:35.657Z,10.57
2023-04-18T22:54:40.397Z,10.67
2023-04-18T22:59:42.050Z,10.58
2023-04-18T23:04:45.440Z,10.69
2023-04-18T23:09:47.176Z,10.65
2023-04-18T23:14:48.853Z,10.62
2023-04-18T23:19:50.449Z,10.51
2023-04-18T23:24:52.357Z,10.69
2023-04-18T23:29:53.938Z,10.62
2023-04-18T23:34:56.465Z,10.60
2023-04-18T23:39:59.274Z,10.66
2023-04-18T23:45:01.329Z,10.63
2023-04-18T23:50:03.030Z,10.49
2023-04-18T23:55:04.955Z,10.36
